Terminal Aerodrome Forecast
Issued by NWS Greer, SC

Home | Current Version | Previous Version | Text Only | Print | Product List | Glossary On
Versions: 1 2 3 4 5 6 7 8 9 10 11 12 13 14 15 16
000
FTUS42 KGSP 041139
TAFAVL
TAF
KAVL 041139Z 0412/0512 17004KT 5SM -RA BR OVC003
     FM041500 16005KT 2SM -RA BR OVC008
      TEMPO 0415/0419 3/4SM RA BR OVC003
     FM050000 15006KT 2SM -RA BR OVC003
     FM050400 16003KT 1 1/2SM BR OVC003
     FM050800 33003KT 1/2SM FG OVC001=

USA.gov is the U.S. government's official web portal to all federal, state and local government web resources and services.